createdAt,value
2023-04-18T00:00:39.890Z,16.40
2023-04-18T00:01:39.881Z,14.00
2023-04-18T00:02:40.140Z,15.40
2023-04-18T00:03:40.118Z,14.20
2023-04-18T00:04:39.893Z,14.70
2023-04-18T00:05:39.823Z,14.20
2023-04-18T00:06:39.814Z,14.10
2023-04-18T00:07:39.802Z,14.60
2023-04-18T00:08:39.787Z,16.30
2023-04-18T00:09:39.796Z,16.10
2023-04-18T00:10:39.808Z,16.10
2023-04-18T00:11:39.759Z,18.60
2023-04-18T00:12:39.747Z,15.00
2023-04-18T00:13:39.735Z,15.10
2023-04-18T00:14:39.719Z,14.90
2023-04-18T00:15:39.714Z,14.60
2023-04-18T00:16:39.744Z,20.20
2023-04-18T00:17:39.767Z,15.70
2023-04-18T00:18:39.674Z,16.70
2023-04-18T00:19:39.668Z,14.20
2023-04-18T00:20:39.676Z,15.00
2023-04-18T00:21:39.644Z,16.10
2023-04-18T00:22:39.637Z,13.90
2023-04-18T00:23:39.636Z,15.60
2023-04-18T00:24:39.621Z,14.30
2023-04-18T00:25:39.612Z,14.20
2023-04-18T00:26:39.635Z,14.10
2023-04-18T00:27:39.580Z,16.70
2023-04-18T00:28:39.569Z,12.90
2023-04-18T00:29:39.579Z,14.50
2023-04-18T00:30:39.595Z,16.20
2023-04-18T00:31:39.534Z,14.60
2023-04-18T00:32:39.622Z,15.40
2023-04-18T00:33:39.554Z,14.70
2023-04-18T00:34:39.586Z,14.20
2023-04-18T00:35:39.615Z,16.20
2023-04-18T00:36:39.649Z,17.90
2023-04-18T00:37:39.593Z,15.10
2023-04-18T00:38:39.651Z,13.10
2023-04-18T00:39:39.637Z,15.80
2023-04-18T00:40:39.449Z,14.70
2023-04-18T00:41:39.427Z,16.00
2023-04-18T00:42:39.438Z,15.80
2023-04-18T00:43:39.407Z,15.30
2023-04-18T00:44:39.402Z,16.30
2023-04-18T00:45:39.382Z,15.70
2023-04-18T00:46:39.427Z,15.50
2023-04-18T00:47:39.408Z,18.00
2023-04-18T00:48:39.351Z,16.90
2023-04-18T00:49:39.338Z,15.90
2023-04-18T00:50:39.325Z,16.20
2023-04-18T00:51:39.318Z,15.10
2023-04-18T00:52:39.322Z,16.70
2023-04-18T00:53:39.299Z,16.70
2023-04-18T00:54:39.288Z,16.20
2023-04-18T00:55:39.271Z,16.80
2023-04-18T00:56:39.261Z,16.40
2023-04-18T00:57:39.249Z,15.60
2023-04-18T00:58:39.264Z,16.70
2023-04-18T00:59:39.233Z,17.00
2023-04-18T01:00:39.217Z,18.80
2023-04-18T01:01:39.307Z,17.70
2023-04-18T01:02:39.368Z,16.60
2023-04-18T01:03:39.323Z,17.10
2023-04-18T01:04:39.216Z,16.80
2023-04-18T01:05:39.162Z,18.50
2023-04-18T01:06:39.155Z,17.80
2023-04-18T01:07:39.141Z,21.00
2023-04-18T01:08:39.161Z,17.70
2023-04-18T01:09:39.123Z,18.90
2023-04-18T01:10:39.115Z,18.50
2023-04-18T01:11:39.108Z,19.10
2023-04-18T01:12:39.079Z,17.20
2023-04-18T01:13:39.078Z,17.60
2023-04-18T01:14:39.112Z,18.10
2023-04-18T01:15:39.176Z,16.10
2023-04-18T01:16:39.041Z,18.60
2023-04-18T01:17:39.067Z,21.30
2023-04-18T01:18:39.020Z,19.60
2023-04-18T01:19:39.012Z,18.90
2023-04-18T01:20:38.993Z,17.30
2023-04-18T01:21:38.985Z,20.60
2023-04-18T01:22:38.979Z,17.70
2023-04-18T01:23:38.970Z,19.40
2023-04-18T01:24:38.956Z,21.70
2023-04-18T01:25:38.943Z,20.10
2023-04-18T01:26:38.930Z,18.60
2023-04-18T01:27:38.925Z,19.30
2023-04-18T01:28:38.910Z,19.20
2023-04-18T01:29:39.108Z,17.70
2023-04-18T01:30:38.911Z,18.60
2023-04-18T01:31:39.121Z,18.90
2023-04-18T01:32:38.946Z,19.40
2023-04-18T01:33:38.856Z,20.90
2023-04-18T01:34:38.848Z,20.40
2023-04-18T01:35:38.833Z,20.30
2023-04-18T01:36:38.834Z,19.60
2023-04-18T01:37:38.809Z,20.20
2023-04-18T01:38:38.799Z,20.10
2023-04-18T01:39:38.787Z,18.60
2023-04-18T01:40:38.778Z,18.50
2023-04-18T01:41:38.766Z,18.00
2023-04-18T01:42:38.753Z,18.10
2023-04-18T01:43:38.747Z,21.20
2023-04-18T01:44:38.736Z,18.10
2023-04-18T01:45:38.732Z,20.10
2023-04-18T01:46:38.818Z,19.50
2023-04-18T01:47:38.774Z,21.00
2023-04-18T01:48:38.692Z,18.60
2023-04-18T01:49:38.679Z,18.70
2023-04-18T01:50:38.665Z,19.80
2023-04-18T01:51:38.657Z,18.80
2023-04-18T01:52:38.643Z,18.40
2023-04-18T01:53:38.643Z,19.00
2023-04-18T01:54:38.628Z,20.00
2023-04-18T01:55:38.612Z,19.90
2023-04-18T01:56:38.608Z,19.60
2023-04-18T01:57:38.595Z,16.50
2023-04-18T01:58:38.581Z,19.60
2023-04-18T01:59:38.574Z,19.20
2023-04-18T02:00:38.620Z,19.70
2023-04-18T02:01:38.584Z,20.60
2023-04-18T02:02:38.751Z,17.70
2023-04-18T02:03:38.825Z,18.30
2023-04-18T02:04:38.537Z,20.00
2023-04-18T02:05:38.543Z,20.00
2023-04-18T02:06:38.526Z,19.70
2023-04-18T02:07:38.514Z,21.00
2023-04-18T02:08:38.472Z,18.90
2023-04-18T02:09:38.482Z,22.40
2023-04-18T02:10:38.456Z,20.00
2023-04-18T02:11:38.445Z,19.70
2023-04-18T02:12:38.450Z,21.50
2023-04-18T02:13:38.427Z,21.00
2023-04-18T02:14:38.407Z,18.40
2023-04-18T02:15:38.397Z,20.20
2023-04-18T02:16:38.397Z,18.10
2023-04-18T02:17:38.418Z,18.80
2023-04-18T02:18:38.380Z,18.90
2023-04-18T02:19:38.363Z,19.40
2023-04-18T02:20:38.342Z,20.80
2023-04-18T02:21:38.331Z,20.60
2023-04-18T02:22:38.316Z,18.70
2023-04-18T02:23:38.309Z,17.60
2023-04-18T02:24:38.295Z,20.60
2023-04-18T02:25:38.289Z,20.30
2023-04-18T02:26:38.272Z,21.10
2023-04-18T02:27:38.260Z,21.90
2023-04-18T02:28:38.248Z,21.10
2023-04-18T02:29:38.253Z,21.30
2023-04-18T02:30:38.228Z,17.10
2023-04-18T02:31:38.240Z,19.00
2023-04-18T02:32:38.256Z,19.30
2023-04-18T02:33:38.197Z,20.40
2023-04-18T02:34:38.325Z,20.00
2023-04-18T02:35:38.176Z,17.80
2023-04-18T02:36:38.161Z,21.10
2023-04-18T02:37:38.151Z,20.50
2023-04-18T02:38:38.141Z,23.30
2023-04-18T02:39:38.129Z,21.40
2023-04-18T02:40:38.140Z,21.10
2023-04-18T02:41:38.109Z,21.00
2023-04-18T02:42:38.091Z,19.90
2023-04-18T02:43:38.083Z,20.20
2023-04-18T02:44:38.078Z,19.10
2023-04-18T02:45:38.099Z,20.40
2023-04-18T02:46:38.055Z,20.50
2023-04-18T02:47:47.385Z,22.20
2023-04-18T02:48:39.061Z,20.30
2023-04-18T02:49:38.029Z,22.00
2023-04-18T02:50:38.062Z,20.80
2023-04-18T02:51:38.006Z,22.50
2023-04-18T02:52:37.984Z,21.00
2023-04-18T02:53:37.970Z,21.60
2023-04-18T02:54:37.981Z,21.60
2023-04-18T02:55:37.962Z,21.40
2023-04-18T02:56:37.945Z,23.30
2023-04-18T02:57:37.927Z,19.40
2023-04-18T02:58:37.924Z,19.90
2023-04-18T02:59:37.906Z,20.60
2023-04-18T03:00:37.898Z,23.30
2023-04-18T03:01:37.962Z,22.50
2023-04-18T03:02:37.939Z,21.80
2023-04-18T03:03:37.862Z,20.40
2023-04-18T03:04:37.884Z,22.80
2023-04-18T03:05:37.840Z,20.20
2023-04-18T03:06:37.858Z,25.30
2023-04-18T03:07:37.820Z,25.80
2023-04-18T03:08:37.805Z,22.80
2023-04-18T03:09:37.798Z,23.40
2023-04-18T03:10:37.792Z,25.10
2023-04-18T03:11:37.776Z,20.50
2023-04-18T03:12:37.770Z,20.10
2023-04-18T03:13:37.763Z,26.40
2023-04-18T03:14:37.745Z,25.70
2023-04-18T03:15:37.767Z,24.70
2023-04-18T03:16:37.724Z,21.20
2023-04-18T03:17:37.736Z,25.90
2023-04-18T03:18:37.706Z,24.50
2023-04-18T03:19:37.702Z,24.90
2023-04-18T03:20:37.692Z,29.10
2023-04-18T03:21:37.673Z,25.70
2023-04-18T03:22:37.680Z,26.70
2023-04-18T03:23:37.646Z,24.50
2023-04-18T03:24:37.653Z,25.40
2023-04-18T03:25:37.623Z,25.50
2023-04-18T03:26:37.616Z,24.40
2023-04-18T03:27:37.600Z,27.00
2023-04-18T03:28:37.609Z,26.20
2023-04-18T03:29:37.582Z,27.40
2023-04-18T03:30:37.567Z,25.10
2023-04-18T03:31:37.596Z,31.40
2023-04-18T03:32:37.556Z,26.80
2023-04-18T03:33:37.531Z,26.50
2023-04-18T03:34:37.522Z,25.80
2023-04-18T03:35:37.509Z,27.50
2023-04-18T03:36:37.502Z,28.00
2023-04-18T03:37:37.488Z,23.70
2023-04-18T03:38:37.508Z,25.90
2023-04-18T03:39:37.468Z,24.90
2023-04-18T03:40:37.463Z,25.50
2023-04-18T03:41:37.446Z,27.80
2023-04-18T03:42:37.456Z,28.60
2023-04-18T03:43:37.424Z,28.90
2023-04-18T03:44:37.412Z,29.70
2023-04-18T03:45:37.399Z,28.70
2023-04-18T03:46:37.431Z,23.30
2023-04-18T03:47:37.404Z,28.10
2023-04-18T03:48:37.542Z,27.70
2023-04-18T03:49:37.362Z,28.80
2023-04-18T03:50:37.349Z,23.90
2023-04-18T03:51:37.333Z,27.00
2023-04-18T03:52:37.333Z,27.70
2023-04-18T03:53:37.309Z,27.60
2023-04-18T03:54:37.332Z,26.70
2023-04-18T03:55:37.291Z,21.60
2023-04-18T03:56:37.330Z,27.20
2023-04-18T03:57:37.278Z,27.80
2023-04-18T03:58:37.262Z,30.50
2023-04-18T03:59:37.257Z,26.70
2023-04-18T04:00:37.340Z,25.30
2023-04-18T04:01:37.298Z,27.10
2023-04-18T04:02:37.428Z,27.00
2023-04-18T04:03:37.537Z,26.00
2023-04-18T04:04:37.241Z,24.30
2023-04-18T04:05:37.199Z,25.90
2023-04-18T04:06:37.182Z,28.40
2023-04-18T04:07:37.171Z,27.00
2023-04-18T04:08:37.153Z,30.20
2023-04-18T04:09:37.145Z,26.10
2023-04-18T04:10:37.157Z,27.40
2023-04-18T04:11:37.126Z,26.20
2023-04-18T04:12:37.113Z,25.40
2023-04-18T04:13:37.107Z,26.40
2023-04-18T04:14:37.092Z,25.20
2023-04-18T04:15:37.088Z,27.40
2023-04-18T04:16:37.198Z,23.20
2023-04-18T04:17:37.079Z,26.20
2023-04-18T04:18:37.044Z,24.40
2023-04-18T04:19:37.032Z,24.90
2023-04-18T04:20:37.025Z,24.80
2023-04-18T04:21:37.010Z,21.90
2023-04-18T04:22:37.014Z,28.20
2023-04-18T04:23:36.986Z,25.00
2023-04-18T04:24:36.984Z,24.40
2023-04-18T04:25:36.975Z,26.70
2023-04-18T04:26:36.975Z,25.10
2023-04-18T04:27:37.018Z,23.90
2023-04-18T04:28:36.945Z,27.70
2023-04-18T04:29:36.922Z,26.00
2023-04-18T04:30:36.913Z,24.90
2023-04-18T04:31:37.041Z,23.10
2023-04-18T04:32:36.899Z,22.60
2023-04-18T04:33:36.881Z,23.70
2023-04-18T04:34:36.869Z,22.30
2023-04-18T04:35:36.878Z,24.80
2023-04-18T04:36:36.853Z,24.90
2023-04-18T04:37:36.831Z,24.20
2023-04-18T04:38:36.871Z,23.40
2023-04-18T04:39:36.810Z,26.10
2023-04-18T04:40:36.800Z,24.90
2023-04-18T04:41:36.786Z,23.90
2023-04-18T04:42:36.901Z,24.70
2023-04-18T04:43:36.764Z,26.10
2023-04-18T04:44:36.805Z,23.80
2023-04-18T04:45:36.790Z,22.40
2023-04-18T04:46:36.734Z,21.00
2023-04-18T04:47:36.795Z,25.10
2023-04-18T04:48:36.714Z,23.30
2023-04-18T04:49:36.728Z,25.60
2023-04-18T04:50:36.689Z,23.10
2023-04-18T04:51:36.677Z,24.20
2023-04-18T04:52:36.670Z,25.90
2023-04-18T04:53:36.649Z,20.90
2023-04-18T04:54:36.646Z,26.50
2023-04-18T04:55:36.632Z,23.00
2023-04-18T04:56:36.640Z,23.80
2023-04-18T04:57:36.613Z,24.00
2023-04-18T04:58:36.628Z,20.80
2023-04-18T04:59:36.593Z,22.70
2023-04-18T05:00:36.591Z,25.00
2023-04-18T05:01:36.665Z,22.70
2023-04-18T05:02:36.700Z,23.10
2023-04-18T05:03:36.876Z,23.70
2023-04-18T05:04:36.668Z,24.70
2023-04-18T05:05:36.533Z,22.30
2023-04-18T05:06:37.915Z,24.50
2023-04-18T05:07:36.500Z,24.90
2023-04-18T05:08:36.496Z,23.50
2023-04-18T05:09:36.503Z,26.50
2023-04-18T05:10:36.477Z,24.10
2023-04-18T05:11:36.459Z,26.90
2023-04-18T05:12:36.447Z,22.90
2023-04-18T05:13:36.433Z,26.00
2023-04-18T05:14:36.475Z,24.90
2023-04-18T05:15:36.415Z,24.80
2023-04-18T05:16:36.466Z,22.60
2023-04-18T05:17:36.444Z,25.00
2023-04-18T05:18:36.392Z,24.10
2023-04-18T05:19:36.372Z,22.70
2023-04-18T05:20:36.364Z,23.00
2023-04-18T05:21:36.346Z,24.00
2023-04-18T05:22:36.337Z,22.80
2023-04-18T05:23:36.323Z,22.80
2023-04-18T05:24:36.325Z,22.50
2023-04-18T05:25:36.302Z,21.50
2023-04-18T05:26:36.308Z,20.80
2023-04-18T05:27:36.308Z,24.60
2023-04-18T05:28:36.266Z,21.80
2023-04-18T05:29:36.259Z,23.50
2023-04-18T05:30:36.367Z,28.00
2023-04-18T05:31:36.368Z,22.30
2023-04-18T05:32:36.308Z,23.60
2023-04-18T05:33:36.222Z,24.10
2023-04-18T05:34:38.510Z,25.00
2023-04-18T05:35:36.197Z,20.40
2023-04-18T05:36:36.180Z,21.30
2023-04-18T05:37:36.173Z,20.50
2023-04-18T05:38:36.169Z,22.90
2023-04-18T05:39:36.156Z,22.80
2023-04-18T05:40:36.158Z,22.40
2023-04-18T05:41:36.129Z,23.70
2023-04-18T05:42:36.118Z,23.20
2023-04-18T05:43:36.113Z,19.00
2023-04-18T05:44:36.099Z,20.00
2023-04-18T05:45:36.100Z,20.50
2023-04-18T05:46:36.218Z,22.50
2023-04-18T05:47:36.153Z,20.40
2023-04-18T05:48:36.054Z,22.70
2023-04-18T05:49:36.047Z,20.00
2023-04-18T05:50:36.046Z,19.20
2023-04-18T05:51:36.027Z,22.10
2023-04-18T05:52:36.011Z,21.20
2023-04-18T05:53:35.995Z,22.90
2023-04-18T05:54:36.008Z,22.60
2023-04-18T05:55:35.988Z,21.60
2023-04-18T05:56:35.964Z,21.60
2023-04-18T05:57:35.952Z,20.00
2023-04-18T05:58:35.943Z,20.50
2023-04-18T05:59:35.982Z,20.90
2023-04-18T06:00:35.933Z,18.60
2023-04-18T06:01:35.909Z,20.50
2023-04-18T06:02:36.102Z,19.30
2023-04-18T06:03:36.164Z,18.90
2023-04-18T06:04:36.010Z,18.90
2023-04-18T06:05:36.080Z,18.60
2023-04-18T06:06:35.854Z,18.70
2023-04-18T06:07:35.848Z,19.90
2023-04-18T06:08:35.835Z,17.80
2023-04-18T06:09:35.823Z,17.30
2023-04-18T06:10:37.760Z,16.80
2023-04-18T06:11:35.800Z,18.30
2023-04-18T06:12:35.818Z,19.40
2023-04-18T06:13:35.780Z,19.30
2023-04-18T06:14:35.854Z,18.70
2023-04-18T06:15:35.765Z,18.20
2023-04-18T06:16:35.803Z,18.70
2023-04-18T06:17:35.803Z,17.10
2023-04-18T06:18:35.759Z,20.30
2023-04-18T06:19:35.873Z,20.60
2023-04-18T06:20:35.702Z,19.40
2023-04-18T06:21:35.686Z,18.50
2023-04-18T06:22:35.680Z,19.90
2023-04-18T06:23:35.670Z,16.90
2023-04-18T06:24:35.660Z,16.40
2023-04-18T06:25:35.655Z,21.10
2023-04-18T06:26:35.639Z,18.90
2023-04-18T06:27:35.622Z,18.60
2023-04-18T06:28:35.621Z,17.00
2023-04-18T06:29:36.221Z,17.50
2023-04-18T06:30:35.599Z,19.00
2023-04-18T06:31:35.682Z,18.60
2023-04-18T06:32:35.666Z,17.70
2023-04-18T06:33:35.555Z,19.30
2023-04-18T06:34:35.587Z,17.60
2023-04-18T06:35:35.544Z,19.60
2023-04-18T06:36:35.519Z,17.80
2023-04-18T06:37:35.512Z,18.30
2023-04-18T06:38:35.510Z,18.50
2023-04-18T06:39:35.487Z,17.00
2023-04-18T06:40:35.495Z,18.00
2023-04-18T06:41:35.465Z,18.30
2023-04-18T06:42:35.500Z,20.90
2023-04-18T06:43:35.444Z,16.50
2023-04-18T06:44:35.435Z,16.80
2023-04-18T06:45:35.581Z,17.90
2023-04-18T06:46:35.415Z,17.60
2023-04-18T06:47:35.445Z,18.70
2023-04-18T06:48:35.398Z,16.00
2023-04-18T06:49:35.387Z,16.20
2023-04-18T06:50:35.409Z,19.30
2023-04-18T06:51:35.374Z,18.20
2023-04-18T06:52:35.348Z,16.30
2023-04-18T06:53:35.373Z,15.80
2023-04-18T06:54:35.349Z,16.40
2023-04-18T06:55:35.320Z,18.50
2023-04-18T06:56:36.629Z,17.50
2023-04-18T06:57:35.298Z,18.30
2023-04-18T06:58:35.282Z,17.30
2023-04-18T06:59:35.269Z,18.70
2023-04-18T07:00:35.261Z,17.10
2023-04-18T07:01:35.373Z,16.70
2023-04-18T07:02:35.363Z,17.20
2023-04-18T07:03:35.310Z,12.60
2023-04-18T07:04:35.269Z,19.50
2023-04-18T07:05:35.213Z,20.30
2023-04-18T07:06:35.216Z,15.00
2023-04-18T07:07:35.189Z,18.30
2023-04-18T07:08:35.177Z,15.20
2023-04-18T07:09:35.171Z,16.70
2023-04-18T07:10:35.151Z,18.70
2023-04-18T07:11:35.138Z,19.80
2023-04-18T07:12:35.128Z,13.80
2023-04-18T07:13:35.118Z,16.70
2023-04-18T07:14:35.119Z,15.30
2023-04-18T07:15:35.125Z,15.10
2023-04-18T07:16:35.158Z,15.10
2023-04-18T07:17:35.116Z,14.80
2023-04-18T07:18:38.313Z,14.50
2023-04-18T07:19:35.047Z,13.10
2023-04-18T07:20:35.053Z,14.00
2023-04-18T07:21:35.040Z,15.50
2023-04-18T07:22:35.274Z,15.40
2023-04-18T07:23:35.027Z,15.50
2023-04-18T07:24:34.995Z,13.80
2023-04-18T07:25:34.993Z,15.30
2023-04-18T07:26:34.967Z,15.50
2023-04-18T07:27:34.961Z,14.20
2023-04-18T07:28:34.961Z,16.00
2023-04-18T07:29:34.936Z,14.40
2023-04-18T07:30:34.922Z,14.60
2023-04-18T07:31:34.955Z,14.60
2023-04-18T07:32:35.004Z,14.70
2023-04-18T07:33:34.894Z,14.80
2023-04-18T07:34:34.875Z,16.30
2023-04-18T07:35:34.882Z,14.40
2023-04-18T07:36:34.863Z,12.70
2023-04-18T07:37:34.856Z,13.70
2023-04-18T07:38:34.972Z,13.60
2023-04-18T07:39:34.849Z,14.60
2023-04-18T07:40:34.828Z,13.30
2023-04-18T07:41:34.803Z,15.80
2023-04-18T07:42:34.808Z,12.40
2023-04-18T07:43:34.797Z,13.10
2023-04-18T07:44:34.794Z,12.90
2023-04-18T07:45:34.804Z,15.00
2023-04-18T07:46:34.827Z,12.70
2023-04-18T07:47:34.844Z,11.80
2023-04-18T07:48:34.864Z,14.70
2023-04-18T07:49:34.846Z,14.60
2023-04-18T07:50:34.879Z,11.10
2023-04-18T07:51:34.867Z,13.30
2023-04-18T07:52:34.791Z,14.00
2023-04-18T07:53:34.702Z,11.70
2023-04-18T07:54:34.753Z,13.20
2023-04-18T07:55:34.658Z,14.70
2023-04-18T07:56:34.659Z,11.80
2023-04-18T07:57:34.644Z,12.40
2023-04-18T07:58:34.628Z,13.00
2023-04-18T07:59:34.615Z,12.50
2023-04-18T08:00:34.614Z,18.30
2023-04-18T08:01:34.594Z,14.20
2023-04-18T08:02:34.672Z,13.00
2023-04-18T08:03:34.618Z,12.70
2023-04-18T08:04:34.740Z,14.30
2023-04-18T08:05:34.750Z,13.00
2023-04-18T08:06:34.536Z,11.40
2023-04-18T08:07:34.527Z,14.60
2023-04-18T08:08:34.515Z,15.40
2023-04-18T08:09:34.505Z,12.50
2023-04-18T08:10:34.595Z,12.50
2023-04-18T08:11:34.514Z,16.50
2023-04-18T08:12:34.472Z,12.00
2023-04-18T08:13:34.462Z,13.40
2023-04-18T08:14:34.485Z,15.90
2023-04-18T08:15:34.443Z,12.90
2023-04-18T08:16:34.482Z,13.90
2023-04-18T08:17:34.449Z,13.70
2023-04-18T08:18:34.405Z,14.50
2023-04-18T08:19:34.399Z,14.10
2023-04-18T08:20:34.409Z,12.60
2023-04-18T08:21:34.375Z,14.20
2023-04-18T08:22:34.367Z,13.60
2023-04-18T08:23:34.350Z,13.00
2023-04-18T08:24:34.338Z,10.70
2023-04-18T08:25:34.329Z,12.80
2023-04-18T08:26:34.374Z,12.70
2023-04-18T08:27:34.307Z,13.10
2023-04-18T08:28:34.297Z,13.00
2023-04-18T08:29:34.308Z,13.60
2023-04-18T08:30:34.311Z,11.00
2023-04-18T08:31:34.302Z,12.60
2023-04-18T08:32:34.400Z,13.00
2023-04-18T08:33:34.248Z,11.90
2023-04-18T08:34:34.235Z,14.00
2023-04-18T08:35:34.218Z,11.80
2023-04-18T08:36:34.218Z,13.50
2023-04-18T08:37:34.198Z,10.30
2023-04-18T08:38:34.185Z,10.30
2023-04-18T08:39:34.186Z,9.00
2023-04-18T08:40:34.372Z,10.50
2023-04-18T08:41:34.164Z,13.10
2023-04-18T08:42:34.353Z,10.40
2023-04-18T08:43:34.139Z,9.90
2023-04-18T08:44:34.134Z,10.80
2023-04-18T08:45:34.179Z,9.90
2023-04-18T08:46:34.098Z,11.10
2023-04-18T08:47:34.117Z,9.10
2023-04-18T08:48:34.165Z,10.10
2023-04-18T08:49:34.072Z,9.10
2023-04-18T08:50:34.067Z,9.90
2023-04-18T08:51:34.078Z,8.20
2023-04-18T08:52:34.047Z,8.30
2023-04-18T08:53:34.032Z,8.10
2023-04-18T08:54:34.012Z,8.50
2023-04-18T08:55:34.002Z,8.50
2023-04-18T08:56:33.997Z,9.20
2023-04-18T08:57:33.988Z,13.10
2023-04-18T08:58:34.001Z,6.70
2023-04-18T08:59:33.953Z,8.50
2023-04-18T09:00:33.943Z,8.00
2023-04-18T09:01:33.960Z,8.40
2023-04-18T09:02:33.994Z,5.70
2023-04-18T09:03:33.944Z,6.40
2023-04-18T09:04:34.004Z,9.30
2023-04-18T09:05:33.888Z,10.20
2023-04-18T09:06:33.889Z,7.90
2023-04-18T09:07:33.874Z,7.50
2023-04-18T09:08:33.857Z,7.70
2023-04-18T09:09:33.851Z,8.30
2023-04-18T09:10:33.875Z,7.60
2023-04-18T09:11:33.828Z,8.80
2023-04-18T09:12:33.840Z,6.80
2023-04-18T09:13:33.822Z,8.40
2023-04-18T09:14:33.925Z,9.10
2023-04-18T09:15:33.783Z,6.80
2023-04-18T09:16:33.779Z,6.40
2023-04-18T09:17:33.785Z,6.40
2023-04-18T09:18:33.744Z,8.10
2023-04-18T09:19:33.737Z,4.80
2023-04-18T09:20:33.724Z,6.00
2023-04-18T09:21:33.748Z,6.60
2023-04-18T09:22:33.706Z,6.80
2023-04-18T09:23:33.696Z,5.80
2023-04-18T09:24:33.689Z,5.50
2023-04-18T09:25:33.673Z,6.60
2023-04-18T09:26:33.665Z,6.50
2023-04-18T09:27:33.659Z,6.00
2023-04-18T09:28:33.644Z,5.60
2023-04-18T09:29:33.639Z,5.70
2023-04-18T09:30:33.842Z,5.00
2023-04-18T09:31:33.658Z,4.90
2023-04-18T09:32:33.617Z,5.00
2023-04-18T09:33:33.588Z,4.80
2023-04-18T09:34:33.577Z,5.20
2023-04-18T09:35:33.576Z,4.50
2023-04-18T09:36:33.587Z,5.60
2023-04-18T09:37:33.549Z,6.20
2023-04-18T09:38:33.535Z,4.50
2023-04-18T09:39:33.526Z,3.90
2023-04-18T09:40:33.517Z,5.00
2023-04-18T09:41:33.515Z,5.70
2023-04-18T09:42:33.497Z,4.20
2023-04-18T09:43:33.484Z,4.70
2023-04-18T09:44:33.469Z,4.30
2023-04-18T09:45:33.462Z,4.50
2023-04-18T09:46:33.499Z,4.20
2023-04-18T09:47:33.484Z,6.40
2023-04-18T09:48:33.432Z,4.60
2023-04-18T09:49:33.419Z,3.90
2023-04-18T09:50:33.415Z,4.90
2023-04-18T09:51:33.399Z,4.60
2023-04-18T09:52:33.384Z,5.30
2023-04-18T09:53:33.378Z,4.90
2023-04-18T09:54:33.374Z,5.50
2023-04-18T09:55:33.358Z,4.80
2023-04-18T09:56:33.345Z,4.00
2023-04-18T09:57:33.340Z,4.70
2023-04-18T09:58:33.323Z,4.00
2023-04-18T09:59:33.327Z,4.10
2023-04-18T10:00:33.302Z,4.70
2023-04-18T10:01:33.296Z,5.10
2023-04-18T10:02:33.414Z,4.60
2023-04-18T10:03:33.335Z,4.50
2023-04-18T10:04:33.362Z,5.30
2023-04-18T10:05:33.277Z,4.80
2023-04-18T10:06:33.235Z,5.60
2023-04-18T10:07:33.243Z,6.60
2023-04-18T10:08:33.230Z,4.60
2023-04-18T10:09:33.201Z,4.60
2023-04-18T10:10:33.206Z,4.30
2023-04-18T10:11:33.208Z,4.90
2023-04-18T10:12:33.169Z,7.30
2023-04-18T10:13:33.164Z,5.20
2023-04-18T10:14:33.149Z,5.20
2023-04-18T10:15:33.183Z,7.20
2023-04-18T10:16:34.857Z,6.40
2023-04-18T10:17:33.134Z,6.20
2023-04-18T10:18:33.186Z,4.10
2023-04-18T10:19:33.094Z,5.30
2023-04-18T10:20:33.077Z,6.00
2023-04-18T10:21:33.073Z,5.70
2023-04-18T10:22:33.058Z,7.20
2023-04-18T10:23:33.049Z,5.50
2023-04-18T10:24:33.039Z,6.00
2023-04-18T10:25:33.029Z,4.50
2023-04-18T10:26:33.016Z,6.20
2023-04-18T10:27:33.021Z,6.70
2023-04-18T10:28:32.996Z,5.70
2023-04-18T10:29:32.985Z,5.60
2023-04-18T10:30:32.974Z,6.10
2023-04-18T10:31:32.988Z,7.80
2023-04-18T10:32:33.032Z,5.90
2023-04-18T10:33:33.487Z,6.00
2023-04-18T10:34:33.014Z,7.60
2023-04-18T10:35:32.919Z,8.90
2023-04-18T10:36:32.907Z,6.40
2023-04-18T10:37:32.915Z,7.70
2023-04-18T10:38:32.895Z,7.60
2023-04-18T10:39:32.884Z,8.50
2023-04-18T10:40:32.895Z,5.00
2023-04-18T10:41:32.879Z,7.50
2023-04-18T10:42:32.855Z,6.90
2023-04-18T10:43:32.836Z,8.20
2023-04-18T10:44:32.842Z,8.10
2023-04-18T10:45:32.814Z,8.30
2023-04-18T10:46:33.111Z,13.30
2023-04-18T10:47:32.918Z,9.00
2023-04-18T10:48:32.789Z,9.20
2023-04-18T10:49:33.062Z,7.40
2023-04-18T10:50:32.914Z,7.60
2023-04-18T10:51:32.751Z,9.30
2023-04-18T10:52:32.740Z,8.20
2023-04-18T10:53:32.730Z,9.10
2023-04-18T10:54:32.720Z,8.60
2023-04-18T10:55:32.708Z,6.90
2023-04-18T10:56:32.692Z,8.40
2023-04-18T10:57:32.688Z,10.10
2023-04-18T10:58:32.673Z,8.90
2023-04-18T10:59:32.667Z,9.10
2023-04-18T11:00:32.741Z,7.30
2023-04-18T11:01:33.162Z,8.50
2023-04-18T11:02:32.748Z,9.50
2023-04-18T11:03:32.656Z,7.60
2023-04-18T11:04:32.644Z,9.00
2023-04-18T11:05:32.603Z,8.00
2023-04-18T11:06:32.693Z,8.80
2023-04-18T11:07:32.579Z,7.90
2023-04-18T11:08:32.565Z,10.10
2023-04-18T11:09:32.559Z,7.40
2023-04-18T11:10:32.553Z,8.30
2023-04-18T11:11:32.545Z,8.30
2023-04-18T11:12:32.532Z,8.60
2023-04-18T11:13:32.512Z,8.00
2023-04-18T11:14:32.501Z,7.70
2023-04-18T11:15:32.491Z,8.90
2023-04-18T11:16:32.499Z,10.90
2023-04-18T11:17:32.516Z,10.60
2023-04-18T11:18:32.459Z,10.10
2023-04-18T11:19:32.446Z,9.60
2023-04-18T11:20:32.441Z,9.40
2023-04-18T11:21:32.426Z,8.40
2023-04-18T11:22:32.486Z,10.80
2023-04-18T11:23:32.405Z,8.50
2023-04-18T11:24:32.392Z,8.00
2023-04-18T11:25:32.392Z,8.20
2023-04-18T11:26:32.374Z,10.60
2023-04-18T11:27:32.357Z,8.70
2023-04-18T11:28:32.350Z,9.40
2023-04-18T11:29:32.345Z,9.30
2023-04-18T11:30:32.336Z,10.50
2023-04-18T11:31:32.336Z,8.10
2023-04-18T11:32:32.383Z,9.30
2023-04-18T11:33:32.296Z,11.80
2023-04-18T11:34:32.290Z,8.20
2023-04-18T11:35:32.277Z,7.40
2023-04-18T11:36:32.266Z,10.00
2023-04-18T11:37:32.258Z,10.40
2023-04-18T11:38:32.292Z,8.60
2023-04-18T11:39:32.230Z,9.00
2023-04-18T11:40:32.219Z,9.40
2023-04-18T11:41:32.210Z,9.40
2023-04-18T11:42:32.197Z,8.20
2023-04-18T11:43:32.185Z,9.60
2023-04-18T11:44:33.707Z,8.40
2023-04-18T11:45:32.161Z,8.90
2023-04-18T11:46:32.371Z,9.60
2023-04-18T11:47:32.216Z,9.00
2023-04-18T11:48:32.129Z,9.40
2023-04-18T11:49:32.164Z,11.60
2023-04-18T11:50:32.108Z,9.80
2023-04-18T11:51:32.165Z,9.40
2023-04-18T11:52:32.092Z,7.80
2023-04-18T11:53:32.077Z,10.20
2023-04-18T11:54:32.139Z,8.70
2023-04-18T11:55:32.049Z,9.40
2023-04-18T11:56:33.423Z,8.50
2023-04-18T11:57:32.040Z,7.90
2023-04-18T11:58:32.039Z,8.50
2023-04-18T11:59:32.005Z,7.90
2023-04-18T12:00:31.998Z,7.70
2023-04-18T12:01:31.984Z,9.20
2023-04-18T12:02:32.069Z,7.60
2023-04-18T12:03:32.178Z,9.40
2023-04-18T12:04:32.139Z,8.50
2023-04-18T12:05:32.119Z,8.20
2023-04-18T12:06:32.171Z,8.10
2023-04-18T12:07:31.956Z,7.40
2023-04-18T12:08:31.910Z,7.60
2023-04-18T12:09:31.897Z,8.60
2023-04-18T12:10:31.957Z,8.50
2023-04-18T12:11:31.915Z,8.30
2023-04-18T12:12:31.867Z,8.70
2023-04-18T12:13:31.870Z,7.40
2023-04-18T12:14:31.840Z,7.60
2023-04-18T12:15:31.844Z,8.40
2023-04-18T12:16:31.839Z,10.30
2023-04-18T12:17:31.839Z,8.10
2023-04-18T12:18:31.800Z,8.50
2023-04-18T12:19:31.789Z,7.80
2023-04-18T12:20:31.792Z,9.40
2023-04-18T12:21:31.767Z,9.20
2023-04-18T12:22:31.758Z,8.60
2023-04-18T12:23:31.750Z,8.80
2023-04-18T12:24:31.733Z,10.00
2023-04-18T12:25:31.723Z,8.90
2023-04-18T12:26:31.787Z,7.20
2023-04-18T12:27:31.700Z,7.00
2023-04-18T12:28:31.684Z,8.00
2023-04-18T12:29:31.679Z,7.20
2023-04-18T12:30:31.674Z,7.40
2023-04-18T12:31:31.689Z,6.50
2023-04-18T12:32:31.666Z,7.10
2023-04-18T12:33:31.629Z,7.60
2023-04-18T12:34:31.621Z,8.50
2023-04-18T12:35:31.612Z,8.00
2023-04-18T12:36:31.599Z,7.80
2023-04-18T12:37:31.588Z,6.20
2023-04-18T12:38:31.575Z,5.90
2023-04-18T12:39:31.568Z,7.50
2023-04-18T12:40:31.566Z,8.30
2023-04-18T12:41:31.560Z,6.20
2023-04-18T12:42:31.564Z,6.90
2023-04-18T12:43:31.520Z,6.00
2023-04-18T12:44:31.512Z,7.20
2023-04-18T12:45:31.504Z,5.60
2023-04-18T12:46:31.558Z,6.30
2023-04-18T12:47:31.487Z,6.00
2023-04-18T12:48:31.468Z,8.20
2023-04-18T12:49:31.456Z,9.60
2023-04-18T12:50:31.446Z,5.70
2023-04-18T12:51:31.442Z,6.00
2023-04-18T12:52:31.422Z,5.80
2023-04-18T12:53:31.412Z,7.10
2023-04-18T12:54:31.402Z,6.30
2023-04-18T12:55:31.395Z,6.10
2023-04-18T12:56:31.391Z,6.50
2023-04-18T12:57:31.982Z,6.70
2023-04-18T12:58:31.410Z,6.60
2023-04-18T12:59:31.349Z,6.80
2023-04-18T13:00:31.451Z,5.10